createdAt,value
2022-10-20T00:00:36.226Z,99604.87
2022-10-20T00:01:57.776Z,99606.36
2022-10-20T00:02:59.477Z,99608.09
2022-10-20T00:04:01.625Z,99607.22
2022-10-20T00:05:03.614Z,99608.36
2022-10-20T00:06:17.410Z,99609.94
2022-10-20T00:07:19.041Z,99607.88
2022-10-20T00:08:21.404Z,99611.30
2022-10-20T00:09:23.031Z,99610.11
2022-10-20T00:10:24.672Z,99615.83
2022-10-20T00:11:28.331Z,99615.36
2022-10-20T00:12:29.922Z,99618.23
2022-10-20T00:13:31.842Z,99615.81
2022-10-20T00:14:33.601Z,99613.15
2022-10-20T00:15:35.507Z,99612.78
2022-10-20T00:16:39.154Z,99614.58
2022-10-20T00:17:40.888Z,99612.89
2022-10-20T00:18:43.562Z,99614.54
2022-10-20T00:19:48.173Z,99614.45
2022-10-20T00:20:51.113Z,99617.29
2022-10-20T00:21:52.769Z,99620.41
2022-10-20T00:22:54.397Z,99625.73
2022-10-20T00:23:59.761Z,99625.48
2022-10-20T00:25:01.500Z,99625.40
2022-10-20T00:26:07.104Z,99625.23
2022-10-20T00:27:09.344Z,99626.34
2022-10-20T00:28:11.473Z,99622.25
2022-10-20T00:29:13.735Z,99622.02
2022-10-20T00:30:15.378Z,99622.39
2022-10-20T00:31:19.775Z,99627.70
2022-10-20T00:32:21.396Z,99624.12
2022-10-20T00:33:24.507Z,99622.42
2022-10-20T00:34:26.218Z,99622.22
2022-10-20T00:35:27.814Z,99621.64
2022-10-20T00:36:29.577Z,99621.85
2022-10-20T00:37:31.180Z,99623.27
2022-10-20T00:38:34.693Z,99620.70
2022-10-20T00:39:36.445Z,99622.38
2022-10-20T00:40:38.084Z,99618.23
2022-10-20T00:41:40.405Z,99618.03
2022-10-20T00:42:46.462Z,99619.84
2022-10-20T00:43:57.410Z,99617.40
2022-10-20T00:45:00.624Z,99621.23
2022-10-20T00:46:02.580Z,99620.20
2022-10-20T00:47:04.407Z,99621.88
2022-10-20T00:48:16.064Z,99623.16
2022-10-20T00:49:25.195Z,99623.41
2022-10-20T00:50:33.173Z,99623.21
2022-10-20T00:51:35.359Z,99624.15
2022-10-20T00:52:38.839Z,99623.12
2022-10-20T00:53:40.503Z,99620.54
2022-10-20T00:54:42.210Z,99619.80
2022-10-20T00:55:48.090Z,99620.28
2022-10-20T00:56:51.593Z,99619.96
2022-10-20T00:57:57.346Z,99618.84
2022-10-20T00:59:01.801Z,99619.16
2022-10-20T01:00:05.556Z,99622.09
2022-10-20T01:01:07.570Z,99617.08
2022-10-20T01:02:10.591Z,99615.44
2022-10-20T01:03:20.780Z,99614.32
2022-10-20T01:04:23.433Z,99611.11
2022-10-20T01:05:25.805Z,99611.63
2022-10-20T01:06:28.153Z,99610.48
2022-10-20T01:07:29.791Z,99606.70
2022-10-20T01:08:31.448Z,99602.88
2022-10-20T01:09:33.931Z,99602.23
2022-10-20T01:11:02.448Z,99601.40
2022-10-20T01:12:28.595Z,99603.61
2022-10-20T01:13:59.299Z,99602.30
2022-10-20T01:15:28.357Z,99606.59
2022-10-20T01:17:11.526Z,99605.70
2022-10-20T01:18:31.226Z,99604.36
2022-10-20T01:20:09.050Z,99601.48
2022-10-20T01:21:41.324Z,99600.94
2022-10-20T01:23:16.305Z,99596.70
2022-10-20T01:24:30.598Z,99591.08
2022-10-20T01:26:22.089Z,99589.95
2022-10-20T01:27:31.177Z,99589.95
2022-10-20T01:28:59.790Z,99590.48
2022-10-20T01:30:12.390Z,99592.29
2022-10-20T01:31:25.284Z,99588.39
2022-10-20T01:32:41.601Z,99591.89
2022-10-20T01:33:56.943Z,99588.06
2022-10-20T01:35:25.065Z,99588.55
2022-10-20T01:36:47.435Z,99588.05
2022-10-20T01:37:55.888Z,99588.87
2022-10-20T01:39:29.639Z,99590.67
2022-10-20T01:40:51.250Z,99589.64
2022-10-20T01:41:59.043Z,99589.77
2022-10-20T01:43:08.390Z,99591.57
2022-10-20T01:44:16.080Z,99589.71
2022-10-20T01:45:22.555Z,99590.77
2022-10-20T01:46:27.863Z,99587.46
2022-10-20T01:47:32.536Z,99585.61
2022-10-20T01:48:37.920Z,99585.85
2022-10-20T01:49:44.563Z,99583.88
2022-10-20T01:50:49.504Z,99586.21
2022-10-20T01:51:51.278Z,99587.46
2022-10-20T01:52:59.813Z,99587.16
2022-10-20T01:54:01.430Z,99589.83
2022-10-20T01:55:14.837Z,99588.63
2022-10-20T01:56:40.255Z,99587.48
2022-10-20T01:58:00.218Z,99585.80
2022-10-20T01:59:20.581Z,99585.59
2022-10-20T02:00:23.178Z,99584.39
2022-10-20T02:01:45.079Z,99586.93
2022-10-20T02:03:10.093Z,99587.30
2022-10-20T02:04:12.706Z,99590.35
2022-10-20T02:05:44.503Z,99588.74
2022-10-20T02:07:01.630Z,99588.59
2022-10-20T02:08:34.393Z,99587.11
2022-10-20T02:09:46.394Z,99586.77
2022-10-20T02:10:52.254Z,99589.81
2022-10-20T02:12:13.406Z,99588.17
2022-10-20T02:13:18.661Z,99589.19
2022-10-20T02:14:22.770Z,99585.41
2022-10-20T02:15:27.877Z,99590.11
2022-10-20T02:16:46.480Z,99585.39
2022-10-20T02:17:54.010Z,99588.11
2022-10-20T02:20:00.773Z,99587.41
2022-10-20T02:21:05.430Z,99586.70
2022-10-20T02:22:09.802Z,99588.16
2022-10-20T02:23:11.994Z,99588.08
2022-10-20T02:24:17.328Z,99584.17
2022-10-20T02:25:20.307Z,99584.13
2022-10-20T02:26:25.470Z,99583.59
2022-10-20T02:27:35.435Z,99583.29
2022-10-20T02:28:43.070Z,99582.93
2022-10-20T02:29:50.682Z,99581.90
2022-10-20T02:30:52.777Z,99581.90
2022-10-20T02:31:55.973Z,99582.11
2022-10-20T02:32:57.609Z,99581.48
2022-10-20T02:33:59.284Z,99582.84
2022-10-20T02:35:06.709Z,99581.06
2022-10-20T02:36:16.833Z,99581.18
2022-10-20T02:37:18.496Z,99582.26
2022-10-20T02:38:20.162Z,99582.05
2022-10-20T02:39:21.920Z,99587.79
2022-10-20T02:40:23.854Z,99583.48
2022-10-20T02:41:26.665Z,99587.71
2022-10-20T02:42:28.267Z,99587.08
2022-10-20T02:43:30.146Z,99585.52
2022-10-20T02:44:31.946Z,99590.17
2022-10-20T02:45:33.557Z,99590.90
2022-10-20T02:46:35.161Z,99587.23
2022-10-20T02:47:37.081Z,99589.45
2022-10-20T02:48:39.148Z,99584.72
2022-10-20T02:49:40.786Z,99584.64
2022-10-20T02:50:42.526Z,99585.49
2022-10-20T02:51:44.133Z,99588.73
2022-10-20T02:52:45.717Z,99588.86
2022-10-20T02:53:47.465Z,99588.73
2022-10-20T02:54:49.041Z,99590.38
2022-10-20T02:55:50.614Z,99589.80
2022-10-20T02:56:52.200Z,99585.38
2022-10-20T02:57:54.062Z,99591.22
2022-10-20T02:58:55.768Z,99590.42
2022-10-20T02:59:57.468Z,99590.27
2022-10-20T03:00:59.156Z,99591.90
2022-10-20T03:02:00.788Z,99593.52
2022-10-20T03:03:02.467Z,99590.02
2022-10-20T03:04:04.226Z,99590.52
2022-10-20T03:05:06.387Z,99596.34
2022-10-20T03:06:13.925Z,99596.70
2022-10-20T03:07:15.617Z,99597.27
2022-10-20T03:08:17.314Z,99598.09
2022-10-20T03:09:18.922Z,99600.27
2022-10-20T03:10:20.696Z,99600.59
2022-10-20T03:11:22.822Z,99596.25
2022-10-20T03:12:27.723Z,99600.73
2022-10-20T03:13:32.303Z,99601.38
2022-10-20T03:14:33.891Z,99604.00
2022-10-20T03:15:36.225Z,99603.70
2022-10-20T03:16:37.862Z,99600.48
2022-10-20T03:17:39.575Z,99596.92
2022-10-20T03:18:41.275Z,99599.48
2022-10-20T03:19:43.027Z,99603.77
2022-10-20T03:20:44.865Z,99603.48
2022-10-20T03:21:46.868Z,99602.98
2022-10-20T03:22:48.519Z,99603.55
2022-10-20T03:23:50.169Z,99604.23
2022-10-20T03:24:51.904Z,99607.05
2022-10-20T03:25:53.663Z,99605.98
2022-10-20T03:26:55.281Z,99606.98
2022-10-20T03:27:56.915Z,99604.31
2022-10-20T03:28:58.536Z,99607.42
2022-10-20T03:30:00.211Z,99606.48
2022-10-20T03:31:02.026Z,99608.92
2022-10-20T03:32:03.772Z,99607.45
2022-10-20T03:33:05.719Z,99606.38
2022-10-20T03:34:07.403Z,99609.95
2022-10-20T03:35:09.492Z,99608.08
2022-10-20T03:36:11.925Z,99608.08
2022-10-20T03:37:13.611Z,99612.11
2022-10-20T03:38:15.536Z,99605.95
2022-10-20T03:39:17.143Z,99610.95
2022-10-20T03:40:18.768Z,99611.08
2022-10-20T03:41:20.557Z,99610.80
2022-10-20T03:42:22.187Z,99609.98
2022-10-20T03:43:23.797Z,99609.83
2022-10-20T03:44:25.409Z,99611.51
2022-10-20T03:45:27.100Z,99611.73
2022-10-20T03:46:28.733Z,99611.73
2022-10-20T03:47:30.327Z,99610.67
2022-10-20T03:48:32.009Z,99612.55
2022-10-20T03:49:34.059Z,99611.16
2022-10-20T03:50:38.450Z,99609.79
2022-10-20T03:51:40.120Z,99607.41
2022-10-20T03:52:41.953Z,99606.98
2022-10-20T03:53:44.324Z,99606.65
2022-10-20T03:54:45.928Z,99605.38
2022-10-20T03:55:47.541Z,99607.84
2022-10-20T03:56:49.221Z,99606.61
2022-10-20T03:57:50.890Z,99606.66
2022-10-20T03:58:52.529Z,99606.00
2022-10-20T03:59:54.119Z,99607.16
2022-10-20T04:00:55.820Z,99603.56
2022-10-20T04:01:57.902Z,99605.58
2022-10-20T04:02:59.601Z,99605.62
2022-10-20T04:04:01.262Z,99604.59
2022-10-20T04:05:03.354Z,99606.84
2022-10-20T04:06:05.160Z,99605.02
2022-10-20T04:07:06.787Z,99605.52
2022-10-20T04:08:08.425Z,99607.56
2022-10-20T04:09:10.082Z,99606.67
2022-10-20T04:10:13.477Z,99608.67
2022-10-20T04:11:15.078Z,99607.80
2022-10-20T04:12:16.757Z,99610.66
2022-10-20T04:13:18.395Z,99612.25
2022-10-20T04:14:20.105Z,99606.66
2022-10-20T04:15:21.698Z,99605.97
2022-10-20T04:16:24.095Z,99606.08
2022-10-20T04:17:25.860Z,99604.59
2022-10-20T04:18:27.452Z,99604.86
2022-10-20T04:19:29.045Z,99605.02
2022-10-20T04:20:30.657Z,99606.13
2022-10-20T04:21:32.331Z,99605.77
2022-10-20T04:22:34.598Z,99605.92
2022-10-20T04:23:36.825Z,99604.60
2022-10-20T04:24:38.697Z,99603.98
2022-10-20T04:25:45.605Z,99604.27
2022-10-20T04:27:55.365Z,99604.52
2022-10-20T04:28:57.326Z,99605.91
2022-10-20T04:29:58.969Z,99604.09
2022-10-20T04:31:00.874Z,99600.97
2022-10-20T04:32:02.528Z,99603.35
2022-10-20T04:33:04.395Z,99594.52
2022-10-20T04:34:06.104Z,99597.16
2022-10-20T04:35:08.230Z,99596.16
2022-10-20T04:36:12.822Z,99596.67
2022-10-20T04:37:14.410Z,99596.09
2022-10-20T04:38:16.095Z,99591.58
2022-10-20T04:39:17.998Z,99590.30
2022-10-20T04:40:19.589Z,99591.78
2022-10-20T04:41:21.233Z,99588.83
2022-10-20T04:42:22.846Z,99586.38
2022-10-20T04:43:24.989Z,99583.39
2022-10-20T04:44:26.623Z,99586.06
2022-10-20T04:45:28.667Z,99586.59
2022-10-20T04:46:30.548Z,99585.89
2022-10-20T04:47:33.882Z,99592.05
2022-10-20T04:48:37.463Z,99584.95
2022-10-20T04:49:41.174Z,99586.48
2022-10-20T04:50:42.965Z,99583.40
2022-10-20T04:51:44.606Z,99584.17
2022-10-20T04:52:46.225Z,99580.30
2022-10-20T04:53:47.836Z,99581.92
2022-10-20T04:54:49.853Z,99580.05
2022-10-20T04:55:55.497Z,99576.36
2022-10-20T04:56:57.306Z,99577.30
2022-10-20T04:57:58.915Z,99574.48
2022-10-20T04:59:00.569Z,99573.61
2022-10-20T05:00:02.370Z,99572.45
2022-10-20T05:01:07.741Z,99575.92
2022-10-20T05:02:11.327Z,99572.69
2022-10-20T05:03:12.941Z,99575.98
2022-10-20T05:04:20.902Z,99575.74
2022-10-20T05:05:22.521Z,99572.92
2022-10-20T05:06:27.366Z,99571.83
2022-10-20T05:07:30.629Z,99574.64
2022-10-20T05:08:32.310Z,99573.58
2022-10-20T05:09:34.061Z,99574.53
2022-10-20T05:10:36.706Z,99578.30
2022-10-20T05:11:39.024Z,99579.27
2022-10-20T05:12:40.630Z,99581.98
2022-10-20T05:13:43.208Z,99581.58
2022-10-20T05:14:44.774Z,99578.70
2022-10-20T05:15:52.296Z,99584.25
2022-10-20T05:16:54.044Z,99584.37
2022-10-20T05:17:55.754Z,99585.88
2022-10-20T05:18:58.181Z,99589.16
2022-10-20T05:19:59.842Z,99591.08
2022-10-20T05:21:14.044Z,99589.76
2022-10-20T05:22:15.664Z,99590.65
2022-10-20T05:23:17.252Z,99588.75
2022-10-20T05:24:21.375Z,99591.46
2022-10-20T05:25:36.079Z,99592.23
2022-10-20T05:26:38.567Z,99590.46
2022-10-20T05:27:40.249Z,99589.02
2022-10-20T05:28:48.129Z,99591.81
2022-10-20T05:29:49.708Z,99595.13
2022-10-20T05:30:51.399Z,99597.45
2022-10-20T05:31:53.017Z,99593.90
2022-10-20T05:32:54.630Z,99599.32
2022-10-20T05:33:57.815Z,99597.52
2022-10-20T05:34:59.424Z,99601.88
2022-10-20T05:36:06.410Z,99600.88
2022-10-20T05:37:08.057Z,99601.13
2022-10-20T05:38:09.659Z,99602.51
2022-10-20T05:39:11.611Z,99603.82
2022-10-20T05:40:13.259Z,99598.27
2022-10-20T05:41:17.785Z,99599.09
2022-10-20T05:42:19.543Z,99601.89
2022-10-20T05:43:21.270Z,99601.40
2022-10-20T05:44:22.889Z,99602.88
2022-10-20T05:45:24.551Z,99602.64
2022-10-20T05:46:29.490Z,99603.27
2022-10-20T05:47:31.270Z,99606.19
2022-10-20T05:48:34.045Z,99607.33
2022-10-20T05:49:35.756Z,99608.20
2022-10-20T05:50:37.557Z,99612.20
2022-10-20T05:51:39.312Z,99610.92
2022-10-20T05:52:40.969Z,99607.69
2022-10-20T05:53:44.019Z,99613.66
2022-10-20T05:54:45.676Z,99617.20
2022-10-20T05:55:47.312Z,99621.55
2022-10-20T05:56:48.969Z,99620.30
2022-10-20T05:57:51.743Z,99623.85
2022-10-20T05:58:53.498Z,99624.55
2022-10-20T05:59:55.142Z,99626.77
2022-10-20T06:01:05.761Z,99625.74
2022-10-20T06:02:09.948Z,99632.40
2022-10-20T06:03:13.860Z,99631.15
2022-10-20T06:04:28.126Z,99634.14
2022-10-20T06:05:29.764Z,99634.58
2022-10-20T06:06:31.762Z,99634.33
2022-10-20T06:07:33.522Z,99633.37
2022-10-20T06:08:35.234Z,99634.18
2022-10-20T06:09:38.395Z,99634.44
2022-10-20T06:10:40.222Z,99639.14
2022-10-20T06:11:41.908Z,99640.65
2022-10-20T06:12:43.520Z,99640.41
2022-10-20T06:13:48.490Z,99640.98
2022-10-20T06:14:53.433Z,99640.66
2022-10-20T06:15:55.046Z,99643.52
2022-10-20T06:16:57.492Z,99642.41
2022-10-20T06:17:59.109Z,99642.72
2022-10-20T06:19:00.826Z,99643.76
2022-10-20T06:20:02.541Z,99644.43
2022-10-20T06:21:11.101Z,99644.20
2022-10-20T06:22:13.628Z,99644.95
2022-10-20T06:23:15.266Z,99642.99
2022-10-20T06:24:18.711Z,99646.17
2022-10-20T06:25:20.352Z,99647.26
2022-10-20T06:26:24.509Z,99644.13
2022-10-20T06:27:26.131Z,99642.87
2022-10-20T06:28:30.550Z,99640.59
2022-10-20T06:29:32.244Z,99644.87
2022-10-20T06:30:33.834Z,99647.30
2022-10-20T06:31:41.331Z,99648.59
2022-10-20T06:32:43.007Z,99649.55
2022-10-20T06:33:46.202Z,99645.60
2022-10-20T06:34:47.936Z,99649.08
2022-10-20T06:35:49.579Z,99648.38
2022-10-20T06:36:52.240Z,99651.24
2022-10-20T06:37:54.227Z,99650.36
2022-10-20T06:38:59.219Z,99650.17
2022-10-20T06:40:00.921Z,99650.60
2022-10-20T06:41:04.092Z,99653.60
2022-10-20T06:42:09.647Z,99658.15
2022-10-20T06:43:19.780Z,99657.09
2022-10-20T06:44:24.112Z,99659.13
2022-10-20T06:45:25.780Z,99658.89
2022-10-20T06:46:30.279Z,99661.92
2022-10-20T06:47:31.970Z,99663.20
2022-10-20T06:48:35.025Z,99664.02
2022-10-20T06:49:37.357Z,99663.38
2022-10-20T06:50:39.205Z,99662.35
2022-10-20T06:51:41.156Z,99666.04
2022-10-20T06:52:42.861Z,99660.61
2022-10-20T06:53:46.888Z,99660.90
2022-10-20T06:54:48.769Z,99660.77
2022-10-20T06:56:02.315Z,99664.44
2022-10-20T06:57:04.078Z,99662.98
2022-10-20T06:58:05.722Z,99668.29
2022-10-20T06:59:07.407Z,99668.52
2022-10-20T07:00:09.618Z,99664.38
2022-10-20T07:01:14.872Z,99669.39
2022-10-20T07:02:17.306Z,99666.27
2022-10-20T07:03:18.974Z,99663.45
2022-10-20T07:04:20.905Z,99663.73
2022-10-20T07:05:22.615Z,99664.94
2022-10-20T07:06:30.792Z,99664.02
2022-10-20T07:07:32.537Z,99663.01
2022-10-20T07:08:36.190Z,99663.02
2022-10-20T07:09:38.023Z,99661.77
2022-10-20T07:10:39.728Z,99658.08
2022-10-20T07:11:42.190Z,99665.05
2022-10-20T07:12:43.830Z,99666.92
2022-10-20T07:13:46.848Z,99661.48
2022-10-20T07:14:48.829Z,99663.86
2022-10-20T07:15:55.112Z,99666.23
2022-10-20T07:16:56.820Z,99666.89
2022-10-20T07:17:58.514Z,99670.39
2022-10-20T07:19:03.069Z,99672.91
2022-10-20T07:20:05.917Z,99675.34
2022-10-20T07:21:13.028Z,99673.40
2022-10-20T07:22:14.694Z,99675.02
2022-10-20T07:23:16.512Z,99676.18
2022-10-20T07:24:18.089Z,99675.61
2022-10-20T07:25:21.832Z,99679.23
2022-10-20T07:26:26.649Z,99683.13
2022-10-20T07:27:28.267Z,99684.13
2022-10-20T07:28:30.226Z,99683.91
2022-10-20T07:30:40.213Z,99684.58
2022-10-20T07:31:47.336Z,99684.50
2022-10-20T07:32:49.310Z,99684.45
2022-10-20T07:34:06.758Z,99684.41
2022-10-20T07:35:13.345Z,99683.73
2022-10-20T07:36:17.995Z,99685.55
2022-10-20T07:37:19.647Z,99691.36
2022-10-20T07:38:21.268Z,99693.85
2022-10-20T07:39:23.738Z,99695.59
2022-10-20T07:41:32.308Z,99692.66
2022-10-20T07:42:34.230Z,99692.86
2022-10-20T07:43:37.680Z,99691.27
2022-10-20T07:44:39.278Z,99692.96
2022-10-20T07:45:40.966Z,99692.11
2022-10-20T07:46:42.591Z,99694.52
2022-10-20T07:47:47.603Z,99693.26
2022-10-20T07:48:49.572Z,99695.47
2022-10-20T07:49:51.194Z,99696.25
2022-10-20T07:50:52.861Z,99696.10
2022-10-20T07:51:55.436Z,99695.90
2022-10-20T07:52:57.097Z,99697.61
2022-10-20T07:54:02.155Z,99696.67
2022-10-20T07:55:17.738Z,99697.91
2022-10-20T07:56:29.067Z,99697.20
2022-10-20T07:57:30.713Z,99702.83
2022-10-20T07:58:32.368Z,99697.48
2022-10-20T07:59:34.579Z,99694.40
2022-10-20T08:00:36.489Z,99692.40
2022-10-20T08:01:38.645Z,99691.55
2022-10-20T08:02:43.220Z,99691.32
2022-10-20T08:03:44.832Z,99690.88
2022-10-20T08:04:46.564Z,99691.02
2022-10-20T08:05:48.245Z,99688.53
2022-10-20T08:06:49.925Z,99691.08
2022-10-20T08:07:51.583Z,99694.28
2022-10-20T08:08:54.808Z,99694.64
2022-10-20T08:09:56.541Z,99696.27
2022-10-20T08:10:58.653Z,99694.23
2022-10-20T08:12:00.354Z,99694.73
2022-10-20T08:13:02.263Z,99694.38
2022-10-20T08:14:04.439Z,99697.05
2022-10-20T08:15:06.446Z,99696.02
2022-10-20T08:16:17.254Z,99698.71
2022-10-20T08:17:19.356Z,99699.90
2022-10-20T08:18:26.277Z,99698.35
2022-10-20T08:19:35.757Z,99694.55
2022-10-20T08:20:37.478Z,99692.94
2022-10-20T08:21:39.106Z,99695.93
2022-10-20T08:22:40.753Z,99698.17
2022-10-20T08:23:45.604Z,99695.89
2022-10-20T08:24:47.796Z,99696.64
2022-10-20T08:25:55.893Z,99698.35
2022-10-20T08:26:57.513Z,99697.74
2022-10-20T08:29:06.250Z,99698.48
2022-10-20T08:30:24.338Z,99696.23
2022-10-20T08:31:26.213Z,99695.70
2022-10-20T08:32:27.810Z,99695.27
2022-10-20T08:33:29.503Z,99693.91
2022-10-20T08:34:31.313Z,99697.17
2022-10-20T08:35:33.089Z,99698.86
2022-10-20T08:36:34.805Z,99696.30
2022-10-20T08:37:36.790Z,99695.75
2022-10-20T08:38:39.775Z,99698.86
2022-10-20T08:39:42.268Z,99697.79
2022-10-20T08:40:44.530Z,99700.93
2022-10-20T08:43:19.872Z,99700.14
2022-10-20T08:44:29.098Z,99699.56
2022-10-20T08:45:34.715Z,99699.31
2022-10-20T08:46:40.899Z,99696.95
2022-10-20T08:47:45.440Z,99700.31
2022-10-20T08:48:48.529Z,99699.87
2022-10-20T08:49:50.907Z,99697.04
2022-10-20T08:50:54.142Z,99698.88
2022-10-20T08:51:55.846Z,99699.46
2022-10-20T08:53:00.665Z,99698.25
2022-10-20T08:54:03.381Z,99702.73
2022-10-20T08:55:06.247Z,99701.48
2022-10-20T08:56:13.180Z,99702.00
2022-10-20T08:57:35.918Z,99699.59
2022-10-20T08:58:43.414Z,99698.45
2022-10-20T08:59:45.045Z,99698.40
2022-10-20T09:00:48.588Z,99700.08
2022-10-20T09:01:50.372Z,99698.46
2022-10-20T09:02:52.277Z,99701.32
2022-10-20T09:04:24.876Z,99700.05
2022-10-20T09:05:31.458Z,99694.63
2022-10-20T09:06:35.294Z,99695.46
2022-10-20T09:07:39.800Z,99698.80
2022-10-20T09:08:43.881Z,99699.61
2022-10-20T09:09:46.701Z,99698.62
2022-10-20T09:10:52.352Z,99695.09
2022-10-20T09:12:04.557Z,99695.20
2022-10-20T09:13:23.571Z,99692.33
2022-10-20T09:14:26.370Z,99698.80
2022-10-20T09:15:29.623Z,99694.78
2022-10-20T09:16:42.015Z,99690.73
2022-10-20T09:18:00.954Z,99690.56
2022-10-20T09:19:03.003Z,99692.19
2022-10-20T09:20:18.428Z,99689.02
2022-10-20T09:21:22.651Z,99688.40
2022-10-20T09:22:32.146Z,99688.04
2022-10-20T09:23:42.452Z,99685.83
2022-10-20T09:24:46.738Z,99686.61
2022-10-20T09:25:51.501Z,99684.26
2022-10-20T09:26:58.600Z,99689.01
2022-10-20T09:28:01.398Z,99692.45
2022-10-20T09:29:15.188Z,99689.44
2022-10-20T09:30:21.080Z,99688.95
2022-10-20T09:31:32.822Z,99686.13
2022-10-20T09:32:51.407Z,99686.80
2022-10-20T09:33:53.184Z,99691.50
2022-10-20T09:35:19.483Z,99691.00
2022-10-20T09:36:23.595Z,99690.78
2022-10-20T09:37:25.391Z,99689.74
2022-10-20T09:38:29.827Z,99686.33
2022-10-20T09:39:49.216Z,99684.01
2022-10-20T09:41:17.333Z,99679.62
2022-10-20T09:42:27.834Z,99675.71
2022-10-20T09:43:29.696Z,99676.98
2022-10-20T09:44:35.913Z,99674.50
2022-10-20T09:46:00.015Z,99676.13
2022-10-20T09:47:02.680Z,99676.44
2022-10-20T09:48:29.008Z,99670.48
2022-10-20T09:49:39.561Z,99674.08
2022-10-20T09:50:50.020Z,99672.52
2022-10-20T09:53:05.827Z,99671.02
2022-10-20T09:54:18.304Z,99671.79
2022-10-20T09:55:25.899Z,99669.52
2022-10-20T09:56:35.443Z,99671.84
2022-10-20T09:57:37.159Z,99670.59
2022-10-20T09:58:39.790Z,99668.58
2022-10-20T09:59:46.978Z,99669.89
2022-10-20T10:00:59.565Z,99666.95
2022-10-20T10:02:13.433Z,99665.55
2022-10-20T10:03:22.448Z,99667.85
2022-10-20T10:04:42.646Z,99666.64
2022-10-20T10:05:44.382Z,99665.64
2022-10-20T10:06:46.253Z,99667.89
2022-10-20T10:07:59.796Z,99672.33
2022-10-20T10:09:02.695Z,99671.81
2022-10-20T10:10:24.122Z,99670.77
2022-10-20T10:11:34.289Z,99671.54
2022-10-20T10:12:36.776Z,99675.36
2022-10-20T10:13:44.154Z,99673.66
2022-10-20T10:14:55.971Z,99669.80
2022-10-20T10:16:04.457Z,99670.92
2022-10-20T10:17:06.186Z,99670.21
2022-10-20T10:18:23.093Z,99671.95
2022-10-20T10:19:31.753Z,99670.23
2022-10-20T10:20:41.041Z,99675.31
2022-10-20T10:21:51.462Z,99673.91
2022-10-20T10:22:53.255Z,99667.55
2022-10-20T10:23:59.161Z,99670.44
2022-10-20T10:25:01.998Z,99669.71
2022-10-20T10:26:26.141Z,99670.75
2022-10-20T10:27:33.465Z,99661.98
2022-10-20T10:28:40.202Z,99661.87
2022-10-20T10:29:41.870Z,99658.73
2022-10-20T10:30:46.918Z,99655.57
2022-10-20T10:32:25.304Z,99653.91
2022-10-20T10:33:29.074Z,99655.23
2022-10-20T10:34:59.900Z,99652.56
2022-10-20T10:36:05.452Z,99649.73
2022-10-20T10:37:13.793Z,99650.23
2022-10-20T10:38:15.649Z,99648.42
2022-10-20T10:39:17.309Z,99646.27
2022-10-20T10:40:22.369Z,99643.25
2022-10-20T10:41:41.690Z,99645.25
2022-10-20T10:42:55.988Z,99644.05
2022-10-20T10:44:15.647Z,99643.80
2022-10-20T10:45:51.518Z,99633.66
2022-10-20T10:47:20.648Z,99632.71
2022-10-20T10:48:59.293Z,99628.91
2022-10-20T10:50:24.579Z,99626.30
2022-10-20T10:52:04.085Z,99623.88
2022-10-20T10:53:20.970Z,99620.91
2022-10-20T10:54:41.864Z,99620.73
2022-10-20T10:55:57.232Z,99623.16
2022-10-20T10:57:31.474Z,99620.59
2022-10-20T10:58:46.987Z,99621.08
2022-10-20T10:59:52.267Z,99616.05
2022-10-20T11:01:09.706Z,99617.21
2022-10-20T11:02:46.172Z,99613.56
2022-10-20T11:04:05.812Z,99609.01
2022-10-20T11:05:21.376Z,99608.25
2022-10-20T11:06:37.887Z,99611.59
2022-10-20T11:08:17.057Z,99609.43
2022-10-20T11:09:32.991Z,99605.64
2022-10-20T11:11:01.771Z,99604.55
2022-10-20T11:13:00.402Z,99605.48
2022-10-20T11:14:17.181Z,99602.77
2022-10-20T11:15:33.910Z,99604.56
2022-10-20T11:17:17.072Z,99600.55
2022-10-20T11:18:51.670Z,99605.41
2022-10-20T11:20:07.073Z,99603.75
2022-10-20T11:21:20.553Z,99605.64
2022-10-20T11:22:51.054Z,99607.18
2022-10-20T11:24:30.193Z,99605.72
2022-10-20T11:26:13.205Z,99598.02
2022-10-20T11:27:22.516Z,99596.92
2022-10-20T11:28:44.211Z,99599.55
2022-10-20T11:29:55.044Z,99597.02
2022-10-20T11:30:59.424Z,99596.10
2022-10-20T11:32:18.482Z,99598.11
2022-10-20T11:33:26.786Z,99596.58
2022-10-20T11:34:44.518Z,99595.27
2022-10-20T11:35:51.838Z,99596.11
2022-10-20T11:37:06.266Z,99592.95
2022-10-20T11:38:37.183Z,99591.42
2022-10-20T11:39:50.133Z,99589.65
2022-10-20T11:41:12.565Z,99586.56
2022-10-20T11:42:50.279Z,99585.38
2022-10-20T11:44:21.518Z,99583.34
2022-10-20T11:45:35.719Z,99576.31
2022-10-20T11:46:43.112Z,99577.45
2022-10-20T11:47:46.452Z,99576.16
2022-10-20T11:48:52.001Z,99577.86
2022-10-20T11:49:53.905Z,99576.75
2022-10-20T11:51:15.131Z,99576.84
2022-10-20T11:52:41.383Z,99576.35
2022-10-20T11:54:00.675Z,99577.05
2022-10-20T11:55:14.969Z,99571.31
2022-10-20T11:56:44.538Z,99572.94
2022-10-20T11:58:16.417Z,99567.71
2022-10-20T11:59:39.804Z,99562.90
2022-10-20T12:01:03.424Z,99564.34
2022-10-20T12:02:42.670Z,99564.23
2022-10-20T12:04:22.017Z,99565.01
2022-10-20T12:05:48.200Z,99566.47
2022-10-20T12:07:24.049Z,99561.16
2022-10-20T12:08:45.574Z,99564.17
2022-10-20T12:10:11.262Z,99559.05
2022-10-20T12:11:18.068Z,99556.98
2022-10-20T12:12:39.042Z,99558.28
2022-10-20T12:14:10.763Z,99555.11
2022-10-20T12:15:27.962Z,99554.88
2022-10-20T12:16:54.431Z,99554.43
2022-10-20T12:18:15.920Z,99551.90
2022-10-20T12:19:22.011Z,99553.25
2022-10-20T12:20:23.547Z,99551.34
2022-10-20T12:21:57.457Z,99552.09
2022-10-20T12:22:59.227Z,99552.77
2022-10-20T12:24:04.050Z,99550.77
2022-10-20T12:25:05.557Z,99548.77
2022-10-20T12:26:29.737Z,99547.60
2022-10-20T12:27:32.758Z,99544.98
2022-10-20T12:28:41.197Z,99549.24
2022-10-20T12:29:42.830Z,99547.60
2022-10-20T12:30:53.090Z,99549.53
2022-10-20T12:32:25.460Z,99546.23
2022-10-20T12:33:49.843Z,99545.63
2022-10-20T12:35:01.642Z,99546.61
2022-10-20T12:36:23.956Z,99549.72
2022-10-20T12:37:25.605Z,99546.84
2022-10-20T12:38:30.296Z,99546.36
2022-10-20T12:39:31.998Z,99545.38
2022-10-20T12:40:49.149Z,99546.85
2022-10-20T12:42:01.848Z,99544.74
2022-10-20T12:43:03.770Z,99541.14
2022-10-20T12:44:18.747Z,99538.67
2022-10-20T12:45:20.472Z,99536.38
2022-10-20T12:46:28.373Z,99537.20
2022-10-20T12:47:33.439Z,99536.25
2022-10-20T12:48:43.654Z,99538.59
2022-10-20T12:50:06.249Z,99537.30
2022-10-20T12:51:20.994Z,99538.08
2022-10-20T12:52:32.513Z,99535.98
2022-10-20T12:53:35.251Z,99539.17
2022-10-20T12:54:46.201Z,99535.77
2022-10-20T12:56:09.073Z,99531.55
2022-10-20T12:57:41.930Z,99527.71
2022-10-20T12:59:08.120Z,99528.30
2022-10-20T13:00:30.107Z,99524.90
2022-10-20T13:02:09.960Z,99522.98
2022-10-20T13:03:31.694Z,99517.85
2022-10-20T13:04:53.682Z,99518.02
2022-10-20T13:05:55.410Z,99521.52
2022-10-20T13:06:57.068Z,99513.79
2022-10-20T13:07:59.767Z,99508.42
2022-10-20T13:09:04.525Z,99509.48
2022-10-20T13:10:31.480Z,99507.83
2022-10-20T13:11:36.058Z,99507.52
2022-10-20T13:12:40.167Z,99507.52
2022-10-20T13:14:07.499Z,99501.80
2022-10-20T13:15:17.556Z,99502.09
2022-10-20T13:16:23.010Z,99505.23
2022-10-20T13:17:44.052Z,99505.35
2022-10-20T13:18:50.468Z,99504.18
2022-10-20T13:20:01.587Z,99504.61
2022-10-20T13:21:26.108Z,99501.43
2022-10-20T13:22:31.043Z,99495.91